createdAt,value
2018-07-17T00:01:11.355Z,51.55
2018-07-17T00:06:15.618Z,49.53
2018-07-17T00:11:19.394Z,50.97
2018-07-17T00:16:23.187Z,51.32
2018-07-17T00:21:27.166Z,51.79
2018-07-17T00:26:30.672Z,51.83
2018-07-17T00:31:34.517Z,51.29
2018-07-17T00:36:38.081Z,51.70
2018-07-17T00:41:41.571Z,52.69
2018-07-17T00:46:45.070Z,52.06
2018-07-17T00:51:48.738Z,52.24
2018-07-17T00:56:52.231Z,52.85
2018-07-17T01:02:00.976Z,52.59
2018-07-17T01:07:09.893Z,53.12
2018-07-17T01:12:13.413Z,52.35
2018-07-17T01:17:17.986Z,52.91
2018-07-17T01:22:21.551Z,53.29
2018-07-17T01:27:25.111Z,54.72
2018-07-17T01:32:28.645Z,54.29
2018-07-17T01:37:32.418Z,54.50
2018-07-17T01:42:36.042Z,54.08
2018-07-17T01:47:39.527Z,54.07
2018-07-17T01:52:43.147Z,54.53
2018-07-17T01:57:46.709Z,54.72
2018-07-17T02:02:50.403Z,54.95
2018-07-17T02:07:53.921Z,55.31
2018-07-17T02:12:57.498Z,55.08
2018-07-17T02:18:00.975Z,55.41
2018-07-17T02:23:04.726Z,55.21
2018-07-17T02:28:08.365Z,55.43
2018-07-17T02:33:11.867Z,55.78
2018-07-17T02:38:15.398Z,54.65
2018-07-17T02:43:19.026Z,56.03
2018-07-17T02:48:22.823Z,55.10
2018-07-17T02:53:26.406Z,56.30
2018-07-17T02:58:30.781Z,55.72
2018-07-17T03:03:34.263Z,56.77
2018-07-17T03:08:37.765Z,55.86
2018-07-17T03:13:41.302Z,57.07
2018-07-17T03:18:44.807Z,56.67
2018-07-17T03:23:48.314Z,56.55
2018-07-17T03:28:52.105Z,57.39
2018-07-17T03:33:55.883Z,57.21
2018-07-17T03:38:59.417Z,57.72
2018-07-17T03:44:03.108Z,57.16
2018-07-17T03:49:07.041Z,57.91
2018-07-17T03:54:10.646Z,57.33
2018-07-17T03:59:14.198Z,57.16
2018-07-17T04:04:17.885Z,57.91
2018-07-17T04:09:21.370Z,57.74
2018-07-17T04:14:24.828Z,57.69
2018-07-17T04:19:28.410Z,58.25
2018-07-17T04:24:31.993Z,58.26
2018-07-17T04:29:35.527Z,58.03
2018-07-17T04:34:39.390Z,58.15
2018-07-17T04:39:42.986Z,58.25
2018-07-17T04:44:46.506Z,58.44
2018-07-17T04:49:50.140Z,58.96
2018-07-17T04:54:54.043Z,58.58
2018-07-17T04:59:57.666Z,58.16
2018-07-17T05:05:04.338Z,59.29
2018-07-17T05:10:08.136Z,58.64
2018-07-17T05:15:11.929Z,58.93
2018-07-17T05:20:15.665Z,58.47
2018-07-17T05:25:19.082Z,58.60
2018-07-17T05:30:22.763Z,58.87
2018-07-17T05:35:26.893Z,58.52
2018-07-17T05:40:31.177Z,58.61
2018-07-17T05:45:34.872Z,58.67
2018-07-17T05:50:38.361Z,58.24
2018-07-17T05:55:41.976Z,58.37
2018-07-17T06:00:45.652Z,58.17
2018-07-17T06:05:49.225Z,58.23
2018-07-17T06:10:52.838Z,58.25
2018-07-17T06:15:56.772Z,57.40
2018-07-17T06:21:00.396Z,56.86
2018-07-17T06:26:04.315Z,56.17
2018-07-17T06:31:07.882Z,55.85
2018-07-17T06:36:12.395Z,55.17
2018-07-17T06:41:15.947Z,54.18
2018-07-17T06:46:19.597Z,53.62
2018-07-17T06:51:23.129Z,53.54
2018-07-17T06:56:27.126Z,53.09
2018-07-17T07:01:30.724Z,52.14
2018-07-17T07:06:34.278Z,51.87
2018-07-17T07:11:38.326Z,51.30
2018-07-17T07:16:42.334Z,50.83
2018-07-17T07:21:45.806Z,50.80
2018-07-17T07:26:49.406Z,49.61
2018-07-17T07:31:55.301Z,49.37
2018-07-17T07:36:59.497Z,49.29
2018-07-17T07:42:04.233Z,48.80
2018-07-17T07:47:08.505Z,48.65
2018-07-17T07:52:12.742Z,48.12
2018-07-17T07:57:17.434Z,48.02
2018-07-17T08:02:22.058Z,48.00
2018-07-17T08:07:26.438Z,48.09
2018-07-17T08:12:31.195Z,46.76
2018-07-17T08:17:35.520Z,46.42
2018-07-17T08:22:39.888Z,46.20
2018-07-17T08:27:45.518Z,46.07
2018-07-17T08:32:49.980Z,45.54
2018-07-17T08:37:57.885Z,44.68
2018-07-17T08:43:02.115Z,44.99
2018-07-17T08:48:06.007Z,44.61
2018-07-17T08:53:10.336Z,43.31
2018-07-17T08:58:14.940Z,42.89
2018-07-17T09:03:19.415Z,42.51
2018-07-17T09:08:24.170Z,42.75
2018-07-17T09:13:28.322Z,41.69
2018-07-17T09:18:32.757Z,41.23
2018-07-17T09:23:37.371Z,40.35
2018-07-17T09:28:42.626Z,40.55
2018-07-17T09:33:46.855Z,39.47
2018-07-17T09:38:51.001Z,39.69
2018-07-17T09:43:55.379Z,38.99
2018-07-17T09:48:59.885Z,38.93
2018-07-17T09:54:04.014Z,37.90
2018-07-17T09:59:09.311Z,38.48
2018-07-17T10:04:15.580Z,36.97
2018-07-17T10:09:20.014Z,36.09
2018-07-17T10:14:25.059Z,36.90
2018-07-17T10:19:29.343Z,36.88
2018-07-17T10:24:33.550Z,36.31
2018-07-17T10:29:38.030Z,36.22
2018-07-17T10:34:42.430Z,36.03
2018-07-17T10:39:46.486Z,35.96
2018-07-17T10:44:50.549Z,34.80
2018-07-17T10:49:54.785Z,34.55
2018-07-17T10:54:59.561Z,35.18
2018-07-17T11:00:08.581Z,35.23
2018-07-17T11:05:13.836Z,34.10
2018-07-17T11:10:18.377Z,33.39
2018-07-17T11:15:22.351Z,32.51
2018-07-17T11:20:26.210Z,32.09
2018-07-17T11:25:30.746Z,31.68
2018-07-17T11:30:34.985Z,30.23
2018-07-17T11:35:39.192Z,29.63
2018-07-17T11:40:44.059Z,29.25
2018-07-17T11:45:48.779Z,28.99
2018-07-17T11:50:53.049Z,29.54
2018-07-17T11:55:57.955Z,28.50
2018-07-17T12:01:01.621Z,29.42
2018-07-17T12:06:05.341Z,29.13
2018-07-17T12:11:09.324Z,28.50
2018-07-17T12:16:13.589Z,28.24
2018-07-17T12:21:17.437Z,27.52
2018-07-17T12:26:21.972Z,26.59
2018-07-17T12:31:26.086Z,25.93
2018-07-17T12:36:29.909Z,26.52
2018-07-17T12:41:34.217Z,26.26
2018-07-17T12:46:38.347Z,26.47
2018-07-17T12:51:42.478Z,25.73
2018-07-17T12:56:46.845Z,26.08
2018-07-17T13:01:50.716Z,25.78
2018-07-17T13:06:55.562Z,25.36
2018-07-17T13:11:59.628Z,25.69
2018-07-17T13:17:04.386Z,25.31
2018-07-17T13:22:09.317Z,25.39
2018-07-17T13:27:13.412Z,26.05
2018-07-17T13:32:17.563Z,25.67
2018-07-17T13:37:22.251Z,25.29
2018-07-17T13:42:26.670Z,25.12
2018-07-17T13:47:30.649Z,24.74
2018-07-17T13:52:35.036Z,24.53
2018-07-17T13:57:38.691Z,24.37
2018-07-17T14:02:42.530Z,24.65
2018-07-17T14:07:46.660Z,24.67
2018-07-17T14:12:50.919Z,25.19
2018-07-17T14:17:55.825Z,24.79
2018-07-17T14:23:00.361Z,24.44
2018-07-17T14:28:04.234Z,24.90
2018-07-17T14:33:08.379Z,23.87
2018-07-17T14:38:12.506Z,24.86
2018-07-17T14:43:16.914Z,24.33
2018-07-17T14:48:22.104Z,23.86
2018-07-17T14:53:28.503Z,23.95
2018-07-17T14:58:32.646Z,23.03
2018-07-17T15:03:37.858Z,23.24
2018-07-17T15:08:42.822Z,23.44
2018-07-17T15:13:46.919Z,22.45
2018-07-17T15:18:51.282Z,22.93
2018-07-17T15:23:55.071Z,21.98
2018-07-17T15:28:59.073Z,22.97
2018-07-17T15:34:03.209Z,22.35
2018-07-17T15:39:10.135Z,22.64
2018-07-17T15:44:14.548Z,22.26
2018-07-17T15:49:18.679Z,22.14
2018-07-17T15:54:23.137Z,21.45
2018-07-17T15:59:27.542Z,20.62
2018-07-17T16:04:31.819Z,21.17
2018-07-17T16:09:36.652Z,19.12
2018-07-17T16:14:44.396Z,19.10
2018-07-17T16:19:48.615Z,19.09
2018-07-17T16:24:53.344Z,19.79
2018-07-17T16:29:57.740Z,18.96
2018-07-17T16:35:07.859Z,19.76
2018-07-17T16:40:12.184Z,19.55
2018-07-17T16:45:16.374Z,20.51
2018-07-17T16:50:20.674Z,20.58
2018-07-17T16:55:25.458Z,21.42
2018-07-17T17:00:29.382Z,21.92
2018-07-17T17:05:33.405Z,21.76
2018-07-17T17:10:37.430Z,21.95
2018-07-17T17:15:41.414Z,21.40
2018-07-17T17:20:45.583Z,21.33
2018-07-17T17:25:50.042Z,21.32
2018-07-17T17:30:55.642Z,22.44
2018-07-17T17:35:59.543Z,22.08
2018-07-17T17:41:03.348Z,22.46
2018-07-17T17:46:08.043Z,22.36
2018-07-17T17:51:12.120Z,21.70
2018-07-17T17:56:17.623Z,22.24
2018-07-17T18:01:21.901Z,22.44
2018-07-17T18:06:26.470Z,23.48
2018-07-17T18:11:30.105Z,23.01
2018-07-17T18:16:33.786Z,23.95
2018-07-17T18:21:37.268Z,23.64
2018-07-17T18:26:40.990Z,25.11
2018-07-17T18:31:44.491Z,25.37
2018-07-17T18:36:48.157Z,25.79
2018-07-17T18:41:52.052Z,26.23
2018-07-17T18:46:55.702Z,26.21
2018-07-17T18:51:59.287Z,26.70
2018-07-17T18:57:02.984Z,27.16
2018-07-17T19:02:06.810Z,26.97
2018-07-17T19:07:10.458Z,27.36
2018-07-17T19:12:14.073Z,27.99
2018-07-17T19:17:17.708Z,28.85
2018-07-17T19:22:21.405Z,29.08
2018-07-17T19:27:24.980Z,29.24
2018-07-17T19:32:28.611Z,30.43
2018-07-17T19:37:32.269Z,30.75
2018-07-17T19:42:35.881Z,31.38
2018-07-17T19:47:39.380Z,30.85
2018-07-17T19:52:43.104Z,31.67
2018-07-17T19:57:46.578Z,31.89
2018-07-17T20:02:50.254Z,32.09
2018-07-17T20:07:53.754Z,32.78
2018-07-17T20:12:57.383Z,32.58
2018-07-17T20:18:01.186Z,33.08
2018-07-17T20:23:04.978Z,32.94
2018-07-17T20:28:08.653Z,33.28
2018-07-17T20:33:12.195Z,33.66
2018-07-17T20:38:15.794Z,33.54
2018-07-17T20:43:19.225Z,33.69
2018-07-17T20:48:23.551Z,34.28
2018-07-17T20:53:27.149Z,34.23
2018-07-17T20:58:30.872Z,34.39
2018-07-17T21:03:34.546Z,34.51
2018-07-17T21:08:38.285Z,35.79
2018-07-17T21:13:41.862Z,35.83
2018-07-17T21:18:45.645Z,35.82
2018-07-17T21:23:49.401Z,35.61
2018-07-17T21:28:53.766Z,35.13
2018-07-17T21:33:57.366Z,35.16
2018-07-17T21:39:01.009Z,34.83
2018-07-17T21:44:04.692Z,35.34
2018-07-17T21:49:08.225Z,36.53
2018-07-17T21:54:12.002Z,36.07
2018-07-17T21:59:15.575Z,36.87
2018-07-17T22:04:19.642Z,37.01
2018-07-17T22:09:23.390Z,38.12
2018-07-17T22:14:27.061Z,39.39
2018-07-17T22:19:30.546Z,38.85
2018-07-17T22:24:34.221Z,39.34
2018-07-17T22:29:37.736Z,39.94
2018-07-17T22:34:41.306Z,41.07
2018-07-17T22:39:44.859Z,40.12
2018-07-17T22:44:48.366Z,41.16
2018-07-17T22:49:51.965Z,40.68
2018-07-17T22:54:55.479Z,43.00
2018-07-17T22:59:59.041Z,41.88
2018-07-17T23:05:02.970Z,43.48
2018-07-17T23:10:07.469Z,42.72
2018-07-17T23:15:11.443Z,44.17
2018-07-17T23:20:14.965Z,43.96
2018-07-17T23:25:19.164Z,44.59
2018-07-17T23:30:22.715Z,44.21
2018-07-17T23:35:26.638Z,44.11
2018-07-17T23:40:30.410Z,45.01
2018-07-17T23:45:34.779Z,45.34
2018-07-17T23:50:38.341Z,46.15
2018-07-17T23:55:42.098Z,46.62
